createdAt,value
2022-08-17T00:00:12.038Z,63.66
2022-08-17T00:03:03.072Z,63.87
2022-08-17T00:05:33.584Z,63.53
2022-08-17T00:08:02.001Z,63.53
2022-08-17T00:10:30.352Z,63.68
2022-08-17T00:13:04.468Z,63.60
2022-08-17T00:15:32.319Z,63.47
2022-08-17T00:18:00.009Z,63.51
2022-08-17T00:20:30.486Z,63.60
2022-08-17T00:23:08.649Z,63.52
2022-08-17T00:25:36.768Z,63.51
2022-08-17T00:28:06.430Z,63.47
2022-08-17T00:30:53.085Z,63.57
2022-08-17T00:33:24.004Z,63.61
2022-08-17T00:35:53.182Z,63.49
2022-08-17T00:38:21.863Z,63.60
2022-08-17T00:40:55.629Z,63.61
2022-08-17T00:43:31.087Z,63.62
2022-08-17T00:46:00.690Z,63.70
2022-08-17T00:48:30.795Z,63.60
2022-08-17T00:51:04.056Z,63.75
2022-08-17T00:53:35.501Z,63.76
2022-08-17T00:56:07.858Z,63.68
2022-08-17T00:58:36.941Z,63.63
2022-08-17T01:01:06.332Z,63.89
2022-08-17T01:03:37.049Z,63.90
2022-08-17T01:06:08.340Z,64.01
2022-08-17T01:08:38.104Z,64.02
2022-08-17T01:11:07.648Z,64.18
2022-08-17T01:13:41.105Z,64.19
2022-08-17T01:16:16.640Z,64.20
2022-08-17T01:18:46.627Z,64.15
2022-08-17T01:21:22.293Z,64.26
2022-08-17T01:23:50.192Z,64.19
2022-08-17T01:26:18.903Z,64.06
2022-08-17T01:28:54.974Z,64.27
2022-08-17T01:31:27.753Z,64.24
2022-08-17T01:33:55.533Z,64.38
2022-08-17T01:36:23.338Z,64.24
2022-08-17T01:38:51.143Z,64.16
2022-08-17T01:41:20.561Z,64.22
2022-08-17T01:43:54.934Z,64.14
2022-08-17T01:46:26.608Z,64.15
2022-08-17T01:48:55.610Z,64.22
2022-08-17T01:51:24.723Z,64.20
2022-08-17T01:53:56.810Z,64.17
2022-08-17T01:56:26.226Z,64.12
2022-08-17T01:58:54.302Z,64.18
2022-08-17T02:01:25.816Z,63.95
2022-08-17T02:03:59.376Z,64.00
2022-08-17T02:06:30.615Z,63.83
2022-08-17T02:09:02.977Z,63.74
2022-08-17T02:11:34.253Z,63.71
2022-08-17T02:14:04.493Z,63.70
2022-08-17T02:16:37.549Z,63.55
2022-08-17T02:19:09.107Z,63.37
2022-08-17T02:21:38.364Z,63.41
2022-08-17T02:24:10.212Z,63.47
2022-08-17T02:26:38.201Z,63.47
2022-08-17T02:29:06.649Z,63.50
2022-08-17T02:31:34.931Z,63.56
2022-08-17T02:34:05.315Z,63.78
2022-08-17T02:36:35.015Z,63.51
2022-08-17T02:39:06.139Z,63.60
2022-08-17T02:41:34.034Z,63.55
2022-08-17T02:44:01.957Z,63.71
2022-08-17T02:46:31.369Z,63.73
2022-08-17T02:48:59.281Z,63.75
2022-08-17T02:51:27.411Z,64.04
2022-08-17T02:54:39.447Z,64.22
2022-08-17T02:56:43.653Z,64.78
2022-08-17T02:59:11.627Z,64.79
2022-08-17T03:01:39.755Z,64.92
2022-08-17T03:04:07.681Z,64.81
2022-08-17T03:06:36.720Z,65.18
2022-08-17T03:09:05.023Z,65.23
2022-08-17T03:11:32.811Z,65.46
2022-08-17T03:14:01.641Z,65.35
2022-08-17T03:16:29.417Z,65.47
2022-08-17T03:18:57.266Z,65.35
2022-08-17T03:21:25.037Z,65.38
2022-08-17T03:23:54.527Z,65.30
2022-08-17T03:26:22.663Z,65.36
2022-08-17T03:28:50.403Z,65.30
2022-08-17T03:31:18.222Z,65.15
2022-08-17T03:33:46.014Z,65.38
2022-08-17T03:36:14.229Z,65.42
2022-08-17T03:38:41.953Z,65.67
2022-08-17T03:41:10.824Z,65.88
2022-08-17T03:43:38.642Z,65.92
2022-08-17T03:46:27.900Z,65.80
2022-08-17T03:49:18.863Z,65.86
2022-08-17T03:52:05.021Z,65.80
2022-08-17T03:54:51.224Z,66.05
2022-08-17T03:57:19.349Z,66.03
2022-08-17T03:59:47.901Z,65.98
2022-08-17T04:02:21.108Z,65.84
2022-08-17T04:04:50.241Z,65.86
2022-08-17T04:07:19.026Z,65.82
2022-08-17T04:09:46.767Z,65.74
2022-08-17T04:12:16.760Z,65.64
2022-08-17T04:14:53.562Z,65.68
2022-08-17T04:17:25.371Z,65.83
2022-08-17T04:19:54.465Z,65.90
2022-08-17T04:22:30.894Z,65.92
2022-08-17T04:25:04.747Z,65.57
2022-08-17T04:27:31.602Z,65.45
2022-08-17T04:30:00.090Z,65.21
2022-08-17T04:33:03.409Z,66.02
2022-08-17T04:35:22.312Z,67.04
2022-08-17T04:37:51.031Z,67.42
2022-08-17T04:40:39.475Z,68.04
2022-08-17T04:43:12.832Z,68.93
2022-08-17T04:45:55.089Z,69.62
2022-08-17T04:48:29.967Z,69.87
2022-08-17T04:51:08.858Z,70.43
2022-08-17T04:53:36.792Z,70.28
2022-08-17T04:56:05.231Z,70.67
2022-08-17T04:58:33.255Z,70.84
2022-08-17T05:01:02.302Z,70.66
2022-08-17T05:03:31.280Z,70.79
2022-08-17T05:05:59.102Z,70.82
2022-08-17T05:08:27.259Z,70.78
2022-08-17T05:10:55.413Z,70.67
2022-08-17T05:13:26.627Z,70.53
2022-08-17T05:15:54.521Z,70.18
2022-08-17T05:18:22.671Z,70.06
2022-08-17T05:20:52.937Z,69.78
2022-08-17T05:23:23.306Z,69.40
2022-08-17T05:25:54.317Z,69.54
2022-08-17T05:28:27.408Z,69.27
2022-08-17T05:30:57.820Z,68.74
2022-08-17T05:33:28.571Z,68.54
2022-08-17T05:35:58.977Z,67.68
2022-08-17T05:38:28.622Z,67.34
2022-08-17T05:40:57.693Z,67.19
2022-08-17T05:43:27.842Z,67.30
2022-08-17T05:46:02.505Z,66.76
2022-08-17T05:48:35.832Z,66.78
2022-08-17T05:51:31.787Z,66.80
2022-08-17T05:54:23.117Z,66.97
2022-08-17T05:56:58.776Z,67.04
2022-08-17T05:59:34.475Z,67.14
2022-08-17T06:02:11.150Z,67.40
2022-08-17T06:04:55.008Z,67.55
2022-08-17T06:07:31.503Z,67.18
2022-08-17T06:10:08.659Z,66.92
2022-08-17T06:12:49.791Z,66.87
2022-08-17T06:15:29.994Z,66.08
2022-08-17T06:18:01.602Z,65.97
2022-08-17T06:20:37.911Z,65.65
2022-08-17T06:23:13.971Z,65.73
2022-08-17T06:25:47.574Z,65.65
2022-08-17T06:28:24.947Z,65.48
2022-08-17T06:31:00.607Z,65.53
2022-08-17T06:33:33.691Z,64.73
2022-08-17T06:36:10.791Z,64.88
2022-08-17T06:38:50.727Z,64.51
2022-08-17T06:41:28.513Z,64.25
2022-08-17T06:44:13.192Z,63.66
2022-08-17T06:47:08.237Z,62.53
2022-08-17T06:49:43.345Z,62.01
2022-08-17T06:52:45.946Z,62.20
2022-08-17T06:55:18.742Z,61.38
2022-08-17T06:57:51.899Z,60.78
2022-08-17T07:00:23.225Z,60.62
2022-08-17T07:03:02.510Z,59.19
2022-08-17T07:05:38.713Z,59.11
2022-08-17T07:08:17.838Z,59.51
2022-08-17T07:10:50.747Z,59.00
2022-08-17T07:13:28.773Z,59.23
2022-08-17T07:16:12.521Z,59.52
2022-08-17T07:18:40.762Z,58.65
2022-08-17T07:21:26.170Z,58.65
2022-08-17T07:24:29.907Z,58.59
2022-08-17T07:27:12.362Z,58.12
2022-08-17T07:29:45.602Z,58.34
2022-08-17T07:32:18.709Z,58.14
2022-08-17T07:35:15.290Z,58.02
2022-08-17T07:37:52.479Z,57.35
2022-08-17T07:40:28.299Z,57.17
2022-08-17T07:43:05.833Z,57.03
2022-08-17T07:45:53.424Z,57.36
2022-08-17T07:48:24.739Z,57.54
2022-08-17T07:50:53.292Z,57.46
2022-08-17T07:53:24.267Z,58.79
2022-08-17T07:55:53.400Z,59.35
2022-08-17T07:58:23.910Z,59.22
2022-08-17T08:01:08.003Z,59.77
2022-08-17T08:03:42.217Z,60.60
2022-08-17T08:06:21.591Z,61.27
2022-08-17T08:08:54.452Z,60.92
2022-08-17T08:11:31.954Z,60.94
2022-08-17T08:14:28.696Z,59.97
2022-08-17T08:16:59.598Z,59.40
2022-08-17T08:19:28.738Z,59.39
2022-08-17T08:22:04.883Z,59.31
2022-08-17T08:24:56.992Z,59.63
2022-08-17T08:27:37.803Z,58.86
2022-08-17T08:30:10.099Z,58.46
2022-08-17T08:32:53.361Z,57.91
2022-08-17T08:35:30.201Z,58.13
2022-08-17T08:38:07.063Z,58.51
2022-08-17T08:40:49.340Z,58.87
2022-08-17T08:43:26.838Z,58.82
2022-08-17T08:46:06.346Z,58.82
2022-08-17T08:49:06.515Z,59.37
2022-08-17T08:51:51.761Z,59.26
2022-08-17T08:54:34.007Z,59.54
2022-08-17T08:57:34.015Z,59.77
2022-08-17T09:00:12.159Z,59.05
2022-08-17T09:03:07.682Z,59.99
2022-08-17T09:05:52.732Z,60.93
2022-08-17T09:08:35.223Z,60.49
2022-08-17T09:11:10.045Z,59.38
2022-08-17T09:13:46.107Z,58.98
2022-08-17T09:16:29.173Z,59.01
2022-08-17T09:19:04.627Z,58.55
2022-08-17T09:21:47.757Z,58.15
2022-08-17T09:24:24.825Z,58.09
2022-08-17T09:26:58.405Z,58.37
2022-08-17T09:29:29.268Z,57.81
2022-08-17T09:32:02.829Z,57.50
2022-08-17T09:34:34.921Z,56.17
2022-08-17T09:37:16.713Z,55.45
2022-08-17T09:39:53.097Z,55.26
2022-08-17T09:42:29.577Z,55.56
2022-08-17T09:45:18.929Z,55.84
2022-08-17T09:47:53.530Z,55.83
2022-08-17T09:51:03.609Z,55.45
2022-08-17T09:53:14.588Z,55.69
2022-08-17T09:56:41.043Z,55.57
2022-08-17T09:59:38.169Z,54.84
2022-08-17T10:02:36.541Z,54.30
2022-08-17T10:05:12.879Z,53.49
2022-08-17T10:07:48.027Z,52.31
2022-08-17T10:10:24.228Z,52.58
2022-08-17T10:12:56.664Z,52.27
2022-08-17T10:15:38.607Z,52.11
2022-08-17T10:18:25.109Z,49.89
2022-08-17T10:21:24.778Z,49.61
2022-08-17T10:24:26.524Z,50.08
2022-08-17T10:26:57.825Z,49.91
2022-08-17T10:29:40.814Z,49.77
2022-08-17T10:32:27.608Z,50.82
2022-08-17T10:35:18.169Z,51.20
2022-08-17T10:37:59.893Z,51.23
2022-08-17T10:40:35.297Z,51.24
2022-08-17T10:43:20.614Z,51.06
2022-08-17T10:46:21.537Z,51.35
2022-08-17T10:48:43.227Z,52.04
2022-08-17T10:51:35.500Z,52.61
2022-08-17T10:54:03.995Z,53.32
2022-08-17T10:56:44.730Z,53.68
2022-08-17T10:59:50.429Z,54.40
2022-08-17T11:02:26.767Z,54.88
2022-08-17T11:05:23.340Z,55.63
2022-08-17T11:08:13.591Z,56.69
2022-08-17T11:10:57.265Z,55.98
2022-08-17T11:13:40.638Z,56.42
2022-08-17T11:16:30.276Z,56.49
2022-08-17T11:19:27.658Z,56.89
2022-08-17T11:22:48.223Z,56.17
2022-08-17T11:25:18.801Z,56.01
2022-08-17T11:27:52.850Z,56.03
2022-08-17T11:30:46.289Z,55.82
2022-08-17T11:33:53.301Z,55.68
2022-08-17T11:36:35.196Z,54.81
2022-08-17T11:39:16.818Z,54.67
2022-08-17T11:41:54.786Z,54.04
2022-08-17T11:44:36.952Z,52.93
2022-08-17T11:47:32.915Z,51.79
2022-08-17T11:50:41.801Z,49.65
2022-08-17T11:53:49.441Z,47.17
2022-08-17T11:56:33.867Z,45.09
2022-08-17T11:59:02.282Z,45.06
2022-08-17T12:01:51.936Z,44.57
2022-08-17T12:04:30.983Z,44.94
2022-08-17T12:07:06.227Z,45.57
2022-08-17T12:09:38.465Z,45.02
2022-08-17T12:12:14.425Z,45.64
2022-08-17T12:15:09.644Z,46.15
2022-08-17T12:17:41.107Z,46.09
2022-08-17T12:20:14.872Z,45.97
2022-08-17T12:22:55.712Z,45.41
2022-08-17T12:25:26.547Z,45.63
2022-08-17T12:28:05.097Z,45.77
2022-08-17T12:30:35.066Z,46.60
2022-08-17T12:33:10.960Z,46.06
2022-08-17T12:35:38.919Z,44.92
2022-08-17T12:38:30.360Z,45.33
2022-08-17T12:40:58.158Z,44.99
2022-08-17T12:43:30.516Z,44.66
2022-08-17T12:46:13.497Z,44.53
2022-08-17T12:48:59.234Z,44.62
2022-08-17T12:51:29.217Z,44.68
2022-08-17T12:53:57.427Z,45.04
2022-08-17T12:56:26.360Z,44.44
2022-08-17T12:58:54.969Z,44.36
2022-08-17T13:01:24.331Z,44.17
2022-08-17T13:03:56.619Z,44.37
2022-08-17T13:06:31.624Z,44.44
2022-08-17T13:09:10.162Z,44.40
2022-08-17T13:11:47.837Z,44.52
2022-08-17T13:14:17.848Z,45.00
2022-08-17T13:16:52.257Z,44.77
2022-08-17T13:19:39.882Z,44.94
2022-08-17T13:22:11.933Z,44.93
2022-08-17T13:24:53.687Z,44.62
2022-08-17T13:27:24.410Z,43.76
2022-08-17T13:29:53.250Z,42.54
2022-08-17T13:32:31.171Z,41.36
2022-08-17T13:35:29.512Z,41.25
2022-08-17T13:38:03.721Z,40.52
2022-08-17T13:40:39.146Z,38.63
2022-08-17T13:47:28.268Z,36.79
2022-08-17T13:49:56.111Z,34.11
2022-08-17T13:52:38.074Z,34.51
2022-08-17T13:55:17.118Z,34.00
2022-08-17T13:57:46.385Z,34.23
2022-08-17T14:00:30.017Z,33.81
2022-08-17T14:02:58.401Z,33.29
2022-08-17T14:05:27.075Z,33.13
2022-08-17T14:07:57.743Z,32.72
2022-08-17T14:10:26.062Z,34.03
2022-08-17T14:12:54.077Z,32.87
2022-08-17T14:15:24.379Z,32.93
2022-08-17T14:18:12.014Z,31.64
2022-08-17T14:20:39.996Z,31.24
2022-08-17T14:23:07.963Z,31.99
2022-08-17T14:25:35.832Z,31.97
2022-08-17T14:28:06.966Z,31.87
2022-08-17T14:30:35.007Z,31.91
2022-08-17T14:33:05.320Z,32.00
2022-08-17T14:35:34.648Z,31.72
2022-08-17T14:38:02.469Z,30.69
2022-08-17T14:40:30.806Z,30.43
2022-08-17T14:42:58.827Z,30.20
2022-08-17T14:45:30.073Z,31.05
2022-08-17T14:48:03.621Z,30.52
2022-08-17T14:50:31.917Z,30.57
2022-08-17T14:53:01.412Z,30.11
2022-08-17T14:55:30.543Z,29.79
2022-08-17T14:57:58.753Z,30.41
2022-08-17T15:00:27.886Z,29.66
2022-08-17T15:02:59.298Z,29.34
2022-08-17T15:05:30.753Z,28.68
2022-08-17T15:07:58.743Z,28.75
2022-08-17T15:10:28.033Z,28.16
2022-08-17T15:12:56.438Z,27.67
2022-08-17T15:15:24.931Z,26.82
2022-08-17T15:17:52.868Z,26.68
2022-08-17T15:20:24.307Z,26.98
2022-08-17T15:22:54.602Z,26.27
2022-08-17T15:25:23.156Z,25.52
2022-08-17T15:27:51.990Z,25.87
2022-08-17T15:30:20.995Z,26.58
2022-08-17T15:32:54.407Z,26.87
2022-08-17T15:35:27.749Z,26.91
2022-08-17T15:37:57.561Z,26.37
2022-08-17T15:40:25.341Z,26.02
2022-08-17T15:42:53.566Z,26.02
2022-08-17T15:45:25.978Z,26.89
2022-08-17T15:47:54.208Z,26.98
2022-08-17T15:50:21.929Z,28.03
2022-08-17T15:52:55.603Z,28.52
2022-08-17T15:55:24.479Z,28.78
2022-08-17T15:57:52.794Z,29.36
2022-08-17T16:00:23.299Z,29.79
2022-08-17T16:03:44.715Z,29.03
2022-08-17T16:05:40.803Z,29.76
2022-08-17T16:08:10.254Z,30.53
2022-08-17T16:10:38.290Z,30.83
2022-08-17T16:13:05.970Z,31.47
2022-08-17T16:15:51.148Z,31.87
2022-08-17T16:18:30.192Z,31.79
2022-08-17T16:21:18.339Z,31.89
2022-08-17T16:23:46.293Z,31.92
2022-08-17T16:26:14.165Z,32.60
2022-08-17T16:28:42.019Z,33.12
2022-08-17T16:31:09.859Z,32.94
2022-08-17T16:33:39.122Z,33.06
2022-08-17T16:36:08.312Z,32.59
2022-08-17T16:38:37.525Z,33.27
2022-08-17T16:41:06.603Z,33.16
2022-08-17T16:43:35.233Z,33.27
2022-08-17T16:46:03.292Z,33.69
2022-08-17T16:48:31.027Z,33.27
2022-08-17T16:51:04.137Z,33.32
2022-08-17T16:53:32.580Z,34.09
2022-08-17T16:56:01.563Z,33.98
2022-08-17T16:58:29.368Z,34.64
2022-08-17T17:00:58.692Z,34.96
2022-08-17T17:03:28.427Z,34.83
2022-08-17T17:06:06.770Z,34.77
2022-08-17T17:08:42.042Z,34.89
2022-08-17T17:11:17.274Z,35.37
2022-08-17T17:13:49.837Z,35.34
2022-08-17T17:16:23.304Z,35.69
2022-08-17T17:19:04.057Z,36.35
2022-08-17T17:21:39.667Z,36.29
2022-08-17T17:24:14.070Z,36.47
2022-08-17T17:26:54.949Z,36.57
2022-08-17T17:29:48.459Z,37.49
2022-08-17T17:32:21.418Z,37.87
2022-08-17T17:34:54.669Z,38.24
2022-08-17T17:37:31.999Z,38.60
2022-08-17T17:40:06.089Z,38.56
2022-08-17T17:42:34.982Z,39.34
2022-08-17T17:45:11.872Z,39.47
2022-08-17T17:47:39.908Z,39.94
2022-08-17T17:50:08.528Z,40.34
2022-08-17T17:52:47.200Z,40.51
2022-08-17T17:55:29.255Z,40.97
2022-08-17T17:58:06.883Z,41.59
2022-08-17T18:00:39.951Z,42.03
2022-08-17T18:03:22.123Z,42.19
2022-08-17T18:06:07.903Z,42.93
2022-08-17T18:08:49.976Z,43.46
2022-08-17T18:11:36.676Z,43.94
2022-08-17T18:14:16.700Z,43.97
2022-08-17T18:16:45.818Z,44.38
2022-08-17T18:19:15.531Z,44.75
2022-08-17T18:21:48.461Z,44.98
2022-08-17T18:24:29.974Z,44.89
2022-08-17T18:27:00.011Z,44.69
2022-08-17T18:29:37.640Z,44.76
2022-08-17T18:32:28.146Z,44.99
2022-08-17T18:34:59.056Z,45.20
2022-08-17T18:37:44.812Z,45.54
2022-08-17T18:40:34.137Z,45.75
2022-08-17T18:43:25.130Z,46.05
2022-08-17T18:45:56.035Z,46.41
2022-08-17T18:48:28.866Z,46.54
2022-08-17T18:51:01.429Z,46.60
2022-08-17T18:53:37.796Z,46.72
2022-08-17T18:56:24.557Z,46.61
2022-08-17T18:59:02.297Z,46.69
2022-08-17T19:01:41.982Z,46.96
2022-08-17T19:04:34.635Z,47.17
2022-08-17T19:07:12.359Z,47.41
2022-08-17T19:09:46.785Z,47.70
2022-08-17T19:12:27.430Z,47.83
2022-08-17T19:14:57.118Z,48.13
2022-08-17T19:17:32.687Z,48.49
2022-08-17T19:20:06.597Z,48.73
2022-08-17T19:22:56.656Z,48.75
2022-08-17T19:25:31.335Z,49.33
2022-08-17T19:28:06.198Z,49.56
2022-08-17T19:30:54.374Z,49.73
2022-08-17T19:33:22.408Z,50.13
2022-08-17T19:35:58.607Z,50.14
2022-08-17T19:38:39.409Z,50.42
2022-08-17T19:41:15.682Z,50.45
2022-08-17T19:44:07.511Z,50.62
2022-08-17T19:46:48.549Z,51.08
2022-08-17T19:49:33.509Z,51.22
2022-08-17T19:52:26.251Z,51.41
2022-08-17T19:55:00.238Z,51.66
2022-08-17T19:57:37.874Z,51.97
2022-08-17T20:00:11.065Z,52.11
2022-08-17T20:02:46.489Z,52.26
2022-08-17T20:05:19.583Z,52.69
2022-08-17T20:07:54.015Z,52.89
2022-08-17T20:10:30.163Z,53.16
2022-08-17T20:13:06.332Z,53.17
2022-08-17T20:15:38.828Z,53.13
2022-08-17T20:18:17.671Z,53.54
2022-08-17T20:20:55.811Z,53.78
2022-08-17T20:23:51.132Z,54.04
2022-08-17T20:26:27.819Z,54.04
2022-08-17T20:29:19.829Z,54.44
2022-08-17T20:32:17.157Z,54.88
2022-08-17T20:34:47.597Z,54.97
2022-08-17T20:37:32.561Z,55.19
2022-08-17T20:40:21.514Z,55.22
2022-08-17T20:42:49.295Z,55.54
2022-08-17T20:46:04.680Z,55.81
2022-08-17T20:48:40.933Z,55.92
2022-08-17T20:51:21.019Z,56.24
2022-08-17T20:54:06.288Z,56.51
2022-08-17T20:56:59.805Z,56.76
2022-08-17T20:59:56.478Z,56.88
2022-08-17T21:02:27.345Z,56.87
2022-08-17T21:05:27.233Z,57.26
2022-08-17T21:08:12.152Z,57.41
2022-08-17T21:10:43.103Z,57.60
2022-08-17T21:13:45.787Z,57.68
2022-08-17T21:16:31.219Z,58.00
2022-08-17T21:19:09.722Z,58.19
2022-08-17T21:21:49.982Z,58.43
2022-08-17T21:24:30.536Z,58.65
2022-08-17T21:27:07.654Z,58.60
2022-08-17T21:29:52.779Z,58.54
2022-08-17T21:32:29.221Z,58.73
2022-08-17T21:35:24.426Z,58.91
2022-08-17T21:37:56.263Z,58.93
2022-08-17T21:40:26.520Z,59.06
2022-08-17T21:42:57.410Z,59.18
2022-08-17T21:45:30.295Z,59.07
2022-08-17T21:48:13.235Z,59.07
2022-08-17T21:50:43.850Z,59.22
2022-08-17T21:53:22.593Z,59.31
2022-08-17T21:55:51.700Z,59.43
2022-08-17T21:58:30.317Z,59.50
2022-08-17T22:01:21.068Z,59.55
2022-08-17T22:03:57.555Z,59.56
2022-08-17T22:06:29.008Z,59.75
2022-08-17T22:09:04.432Z,59.63
2022-08-17T22:11:46.937Z,59.67
2022-08-17T22:14:17.710Z,59.56
2022-08-17T22:16:45.502Z,59.77
2022-08-17T22:19:13.679Z,59.95
2022-08-17T22:21:41.419Z,59.93
2022-08-17T22:24:21.020Z,60.01
2022-08-17T22:27:02.195Z,60.18
2022-08-17T22:29:57.030Z,60.28
2022-08-17T22:32:34.842Z,60.27
2022-08-17T22:35:34.061Z,60.43
2022-08-17T22:38:30.751Z,60.58
2022-08-17T22:41:35.513Z,60.59
2022-08-17T22:44:23.976Z,60.72
2022-08-17T22:46:59.287Z,60.68
2022-08-17T22:49:30.398Z,60.67
2022-08-17T22:52:05.248Z,60.56
2022-08-17T22:54:51.526Z,60.58
2022-08-17T22:57:40.694Z,60.61
2022-08-17T23:00:30.097Z,60.57
2022-08-17T23:03:08.788Z,60.46
2022-08-17T23:05:37.258Z,60.60
2022-08-17T23:08:05.381Z,60.64
2022-08-17T23:10:35.279Z,60.66
2022-08-17T23:13:03.997Z,60.52
2022-08-17T23:15:33.165Z,60.28
2022-08-17T23:18:04.406Z,60.23
2022-08-17T23:20:33.614Z,60.07
2022-08-17T23:23:03.113Z,60.15
2022-08-17T23:25:33.732Z,60.51
2022-08-17T23:28:03.531Z,60.43
2022-08-17T23:30:33.169Z,60.66
2022-08-17T23:33:04.397Z,60.81
2022-08-17T23:35:38.926Z,60.96
2022-08-17T23:38:09.140Z,60.92
2022-08-17T23:40:37.475Z,61.02
2022-08-17T23:43:05.904Z,61.44
2022-08-17T23:45:43.231Z,61.44
2022-08-17T23:48:11.051Z,61.67
2022-08-17T23:50:38.995Z,61.84
2022-08-17T23:53:08.519Z,62.18
2022-08-17T23:55:36.329Z,62.21
2022-08-17T23:58:05.024Z,62.48
